Time;durP1;ratioP1;P1;durP2;ratioP2;P2;SDS_P1;SDS_P2;PMS_P1;PMS_P2;Temp;Humidity;BMP_temperature;BMP_pressure;BME280_temperature;BME280_humidity;BME280_pressure;Samples;Min_cycle;Max_cycle;Signal;HPM_P1;HPM_P2
2021/06/02 00:02:08;;;;;;;;;0.00;0.00;;;;;23.57;40.34;100471.22;5042871;28;45395;-60
2021/06/02 00:04:35;;;;;;;;;0.00;0.00;;;;;23.54;40.83;100475.97;5054358;28;46295;-60
2021/06/02 00:07:06;;;;;;;;;0.00;0.00;;;;;23.49;40.33;100472.25;5042432;28;45278;-59
2021/06/02 00:09:32;;;;;;;;;0.00;0.00;;;;;23.46;41.05;100478.06;5042597;28;45382;-60
2021/06/02 00:12:00;;;;;;;;;0.00;0.00;;;;;23.42;40.82;100466.91;5042432;28;45347;-59
2021/06/02 00:14:27;;;;;;;;;0.00;0.00;;;;;23.40;40.56;100466.31;5042062;28;46387;-60
2021/06/02 00:16:54;;;;;;;;;0.00;0.00;;;;;23.38;40.43;100460.31;5042163;28;45221;-59
2021/06/02 00:19:20;;;;;;;;;0.00;0.00;;;;;23.36;40.59;100464.25;5042443;28;45305;-61
2021/06/02 00:21:46;;;;;;;;;0.00;0.00;;;;;23.35;40.23;100471.47;5041856;28;45329;-61
2021/06/02 00:24:12;;;;;;;;;0.00;0.00;;;;;23.33;40.94;100470.88;5041839;28;45450;-59
2021/06/02 00:26:38;;;;;;;;;0.00;0.00;;;;;23.30;40.79;100472.13;5041437;28;45297;-59
2021/06/02 00:29:05;;;;;;;;;0.00;0.00;;;;;23.30;40.46;100473.94;5044810;28;45343;-59
2021/06/02 00:31:32;;;;;;;;;0.00;0.00;;;;;23.29;40.76;100475.81;5042355;28;45759;-60
2021/06/02 00:34:00;;;;;;;;;0.00;0.00;;;;;23.27;41.27;100471.69;5042122;28;45236;-58
2021/06/02 00:36:27;;;;;;;;;0.00;0.00;;;;;23.26;41.37;100475.38;5041745;28;45423;-59
2021/06/02 00:38:53;;;;;;;;;0.00;0.00;;;;;23.22;40.80;100482.19;5042029;28;45323;-61
2021/06/02 00:41:19;;;;;;;;;0.00;0.00;;;;;23.21;40.97;100476.03;5042172;28;45740;-59
2021/06/02 00:43:47;;;;;;;;;0.00;0.00;;;;;23.19;41.29;100475.41;5041622;28;45522;-59
2021/06/02 00:46:14;;;;;;;;;0.00;0.00;;;;;23.18;41.10;100475.63;5041916;28;45177;-59
2021/06/02 00:48:42;;;;;;;;;0.00;0.00;;;;;23.17;41.19;100482.81;5041989;28;45321;-60
2021/06/02 00:51:07;;;;;;;;;0.00;0.00;;;;;23.13;41.08;100487.78;5041922;28;45481;-60
2021/06/02 00:53:34;;;;;;;;;0.00;0.00;;;;;23.09;41.03;100489.25;5041899;28;45995;-59
2021/06/02 00:56:05;;;;;;;;;0.00;0.00;;;;;23.04;41.43;100486.34;5050086;28;45252;-61
2021/06/02 00:58:37;;;;;;;;;0.00;0.00;;;;;23.00;41.43;100481.56;5041762;28;45469;-59
2021/06/02 01:01:03;;;;;;;;;0.00;0.00;;;;;22.94;41.70;100478.72;5041877;28;45194;-61
2021/06/02 01:03:29;;;;;;;;;0.00;0.00;;;;;22.90;41.86;100480.16;5047140;28;45402;-60
2021/06/02 01:05:56;;;;;;;;;0.00;0.00;;;;;22.86;42.09;100480.78;5048663;28;45290;-59
2021/06/02 01:08:22;;;;;;;;;0.00;0.00;;;;;22.81;42.10;100481.41;5041868;28;45264;-59
2021/06/02 01:10:51;;;;;;;;;0.00;0.00;;;;;22.78;42.13;100478.28;5042040;28;45416;-59
2021/06/02 01:13:19;;;;;;;;;0.00;0.00;;;;;22.77;42.40;100477.47;5041423;28;46475;-58
2021/06/02 01:15:51;;;;;;;;;0.00;0.00;;;;;22.74;42.28;100477.88;5041247;28;45331;-58
2021/06/02 01:18:18;;;;;;;;;0.00;0.00;;;;;22.72;42.51;100471.91;5041745;28;45411;-59
2021/06/02 01:20:45;;;;;;;;;0.00;0.00;;;;;22.70;42.28;100473.97;5041312;28;45391;-60
2021/06/02 01:23:11;;;;;;;;;0.00;0.00;;;;;22.68;42.63;100473.38;5041588;28;45466;-59
2021/06/02 01:25:39;;;;;;;;;0.00;0.00;;;;;22.68;42.68;100465.34;5041312;28;45488;-61
2021/06/02 01:28:05;;;;;;;;;0.00;0.00;;;;;22.68;42.99;100460.78;5041608;28;45363;-60
2021/06/02 01:30:31;;;;;;;;;0.00;0.00;;;;;22.65;42.73;100463.88;5041465;28;45264;-58
2021/06/02 01:32:56;;;;;;;;;0.00;0.00;;;;;22.64;42.86;100472.13;5041108;28;47283;-60
2021/06/02 01:35:33;;;;;;;;;0.00;0.00;;;;;22.64;42.86;100467.59;5040181;28;45771;-60
2021/06/02 01:38:04;;;;;;;;;0.00;0.00;;;;;22.62;42.95;100466.97;5041595;28;45177;-59
2021/06/02 01:40:52;;;;;;;;;0.00;0.00;;;;;22.58;43.17;100468.41;5041232;28;45339;-59
2021/06/02 01:43:46;;;;;;;;;0.00;0.00;;;;;22.56;42.99;100470.44;5040982;28;46558;-59
2021/06/02 01:46:29;;;;;;;;;0.00;0.00;;;;;22.57;43.54;100471.28;5041104;28;45197;-60
2021/06/02 01:48:57;;;;;;;;;0.00;0.00;;;;;22.56;42.98;100480.34;5048209;28;45364;-60
2021/06/02 01:51:33;;;;;;;;;0.00;0.00;;;;;22.58;42.64;100478.28;5061161;28;45499;-59
2021/06/02 01:54:40;;;;;;;;;0.00;0.00;;;;;22.59;43.05;100470.06;5061075;28;46655;-59
2021/06/02 01:57:24;;;;;;;;;0.00;0.00;;;;;22.59;44.01;100470.06;5061114;28;45207;-59
2021/06/02 02:00:04;;;;;;;;;0.00;0.00;;;;;22.55;43.24;100474.16;5060926;28;45442;-59
2021/06/02 02:02:48;;;;;;;;;0.00;0.00;;;;;22.56;43.12;100478.47;5061266;28;45312;-60
2021/06/02 02:05:31;;;;;;;;;0.00;0.00;;;;;22.57;43.40;100471.28;5052297;28;45519;-59
2021/06/02 02:08:18;;;;;;;;;0.00;0.00;;;;;22.58;43.38;100472.94;5040633;28;45335;-60
2021/06/02 02:10:46;;;;;;;;;0.00;0.00;;;;;22.56;43.47;100477.66;5040804;28;45497;-59
2021/06/02 02:13:37;;;;;;;;;0.00;0.00;;;;;22.54;43.52;100467.16;5040800;28;45430;-60
2021/06/02 02:16:18;;;;;;;;;0.00;0.00;;;;;22.54;43.52;100459.13;5040572;28;45646;-59
2021/06/02 02:18:46;;;;;;;;;0.00;0.00;;;;;22.50;43.52;100463.22;5040717;28;45177;-60
2021/06/02 02:21:20;;;;;;;;;0.00;0.00;;;;;22.49;43.57;100467.78;5040555;28;45328;-59
2021/06/02 02:23:53;;;;;;;;;0.00;0.00;;;;;22.51;43.72;100463.03;5046733;28;45493;-58
2021/06/02 02:26:27;;;;;;;;;0.00;0.00;;;;;22.50;43.52;100472.13;5040649;28;45545;-59
2021/06/02 02:29:21;;;;;;;;;0.00;0.00;;;;;22.51;43.74;100475.59;5040192;28;45355;-59
2021/06/02 02:32:03;;;;;;;;;0.00;0.00;;;;;22.52;43.73;100474.56;5040569;28;45409;-59
2021/06/02 02:34:58;;;;;;;;;0.00;0.00;;;;;22.48;43.88;100468.81;5049365;28;45410;-59
2021/06/02 02:37:54;;;;;;;;;0.00;0.00;;;;;22.46;43.88;100475.38;5060075;28;46967;-60
2021/06/02 02:40:32;;;;;;;;;0.00;0.00;;;;;22.44;43.82;100480.09;5060433;28;45332;-59
2021/06/02 02:43:06;;;;;;;;;0.00;0.00;;;;;22.44;43.58;100488.13;5049094;28;45288;-60
2021/06/02 02:45:58;;;;;;;;;0.00;0.00;;;;;22.40;44.42;100484.25;5041810;28;45249;-61
2021/06/02 02:49:02;;;;;;;;;0.00;0.00;;;;;22.36;44.37;100481.13;5028195;28;46626;-60
2021/06/02 02:51:40;;;;;;;;;0.00;0.00;;;;;22.34;44.22;100475.16;5020104;28;45424;-60
2021/06/02 02:54:37;;;;;;;;;0.00;0.00;;;;;22.34;44.20;100477.84;5064179;28;45307;-60
2021/06/02 02:57:13;;;;;;;;;0.00;0.00;;;;;22.31;44.54;100473.72;5064203;28;45423;-59
2021/06/02 02:59:54;;;;;;;;;0.00;0.00;;;;;22.30;44.45;100474.72;5063650;28;45529;-60
2021/06/02 03:02:19;;;;;;;;;0.00;0.00;;;;;22.30;44.27;100471.25;5063539;28;45331;-61
2021/06/02 03:04:55;;;;;;;;;0.00;0.00;;;;;22.30;44.12;100473.91;5060272;28;45494;-60
2021/06/02 03:07:22;;;;;;;;;0.00;0.00;;;;;22.26;44.18;100470.81;5043402;28;45421;-60
2021/06/02 03:10:02;;;;;;;;;0.00;0.00;;;;;22.23;44.66;100463.19;5043263;28;47345;-60
2021/06/02 03:12:46;;;;;;;;;13.00;13.00;;;;;22.19;44.68;100469.94;5043131;28;45458;-59
2021/06/02 03:15:31;;;;;;;;;0.00;0.00;;;;;22.15;45.14;100475.91;5043799;28;45394;-60
2021/06/02 03:18:06;;;;;;;;;0.00;0.00;;;;;22.13;45.10;100478.78;5043473;28;45346;-61
2021/06/02 03:20:40;;;;;;;;;0.00;0.00;;;;;22.10;45.03;100481.88;5042922;28;46710;-59
2021/06/02 03:23:27;;;;;;;;;0.00;0.00;;;;;22.15;45.05;100483.94;5043144;28;45404;-59
2021/06/02 03:26:16;;;;;;;;;0.00;0.00;;;;;22.10;44.94;100482.69;5043217;28;45494;-60
2021/06/02 03:29:00;;;;;;;;;0.00;0.00;;;;;22.09;45.40;100488.22;5043278;28;45224;-59
2021/06/02 03:31:26;;;;;;;;;0.00;0.00;;;;;22.06;45.53;100480.63;5041492;28;47094;-59
2021/06/02 03:34:09;;;;;;;;;0.00;0.00;;;;;22.02;45.26;100490.06;5046366;28;45208;-59
2021/06/02 03:37:12;;;;;;;;;0.00;0.00;;;;;22.00;45.85;100484.09;5043258;28;45219;-61
2021/06/02 03:40:14;;;;;;;;;0.00;0.00;;;;;21.97;45.64;100476.47;5053711;28;45375;-59
2021/06/02 03:42:52;;;;;;;;;1.00;0.00;;;;;21.94;46.17;100472.31;5054148;28;45408;-60
2021/06/02 03:45:24;;;;;;;;;0.00;0.00;;;;;21.89;46.57;100470.25;5042966;28;45279;-59
2021/06/02 03:48:21;;;;;;;;;0.00;0.00;;;;;21.84;45.96;100472.72;5043090;28;45289;-59
2021/06/02 03:51:01;;;;;;;;;0.00;0.00;;;;;21.85;45.96;100476.22;5033373;28;45533;-58
2021/06/02 03:53:42;;;;;;;;;0.00;0.00;;;;;21.86;46.02;100477.88;5062911;28;45444;-60
2021/06/02 03:56:18;;;;;;;;;0.00;0.00;;;;;21.85;46.54;100471.69;5062804;28;45524;-59
2021/06/02 03:59:21;;;;;;;;;0.00;0.00;;;;;21.84;46.17;100472.72;5062566;28;45356;-60
2021/06/02 04:01:57;;;;;;;;;0.00;0.00;;;;;21.82;46.39;100471.28;5038673;28;46375;-59
2021/06/02 04:04:34;;;;;;;;;0.00;0.00;;;;;21.82;46.43;100477.44;5044373;28;46310;-59
2021/06/02 04:07:05;;;;;;;;;0.00;0.00;;;;;21.82;46.38;100479.28;5024295;28;45528;-59
2021/06/02 04:09:42;;;;;;;;;0.00;0.00;;;;;21.84;46.43;100477.25;5042521;28;45348;-59
2021/06/02 04:12:13;;;;;;;;;0.00;0.00;;;;;21.82;46.87;100480.13;5042861;28;45440;-60
2021/06/02 04:14:52;;;;;;;;;0.00;0.00;;;;;21.78;46.88;100470.84;5042433;28;47534;-59
2021/06/02 04:17:20;;;;;;;;;0.00;0.00;;;;;21.77;46.71;100477.22;5042363;28;45252;-59
2021/06/02 04:19:49;;;;;;;;;0.00;0.00;;;;;21.78;46.48;100473.50;5042714;28;45248;-59
2021/06/02 04:22:20;;;;;;;;;0.00;0.00;;;;;21.79;46.66;100480.53;5042225;28;45478;-60
2021/06/02 04:24:47;;;;;;;;;0.00;0.00;;;;;21.82;46.46;100485.47;5042386;28;47605;-59
2021/06/02 04:27:14;;;;;;;;;0.00;0.00;;;;;21.84;46.67;100486.09;5042070;28;45225;-60
2021/06/02 04:29:44;;;;;;;;;0.00;0.00;;;;;21.86;46.38;100485.91;5042575;28;45227;-61
2021/06/02 04:32:09;;;;;;;;;0.00;0.00;;;;;21.87;46.87;100480.31;5042070;28;45585;-59
2021/06/02 04:34:36;;;;;;;;;0.00;0.00;;;;;21.77;46.68;100465.69;5042025;28;47044;-58
2021/06/02 04:37:08;;;;;;;;;0.00;0.00;;;;;21.80;46.81;100476.81;5041810;28;45173;-61
2021/06/02 04:39:39;;;;;;;;;0.00;0.00;;;;;21.82;46.13;100482.78;5042446;28;45251;-58
2021/06/02 04:42:06;;;;;;;;;0.00;0.00;;;;;21.84;46.83;100486.09;5041542;28;45318;-59
2021/06/02 04:44:34;;;;;;;;;0.00;0.00;;;;;21.81;46.97;100488.31;5040118;28;45452;-59
2021/06/02 04:47:01;;;;;;;;;0.75;0.00;;;;;21.80;46.77;100487.50;5041416;28;45377;-59
2021/06/02 04:49:44;;;;;;;;;0.00;0.00;;;;;21.75;47.36;100481.09;5042051;28;45267;-59
2021/06/02 04:52:13;;;;;;;;;0.00;0.00;;;;;21.74;47.12;100482.13;5041559;28;45378;-60
2021/06/02 04:54:47;;;;;;;;;0.00;0.00;;;;;21.74;47.19;100485.63;5047110;28;47206;-59
2021/06/02 04:57:31;;;;;;;;;0.00;0.00;;;;;21.73;47.24;100484.00;5041657;28;45434;-59
2021/06/02 05:00:15;;;;;;;;;0.00;0.00;;;;;21.77;47.39;100492.41;5041585;28;45388;-60
2021/06/02 05:03:18;;;;;;;;;1.00;1.00;;;;;21.72;47.59;100495.69;5041378;28;45725;-59
2021/06/02 05:06:21;;;;;;;;;0.00;0.00;;;;;21.69;47.22;100496.91;5053231;28;46400;-59
2021/06/02 05:09:11;;;;;;;;;0.00;0.00;;;;;21.65;47.84;100501.00;5038239;28;45362;-59
2021/06/02 05:12:14;;;;;;;;;0.00;0.00;;;;;21.65;48.77;100502.84;5041300;28;45220;-61
2021/06/02 05:15:14;;;;;;;;;0.00;0.00;;;;;21.61;48.66;100506.94;5057293;28;45434;-61
2021/06/02 05:17:58;;;;;;;;;0.00;0.00;;;;;21.54;48.40;100498.88;5044457;28;45686;-61
2021/06/02 05:23:47;;;;;;;;;0.00;0.00;;;;;21.48;49.24;100505.00;5050325;28;45402;-59
2021/06/02 05:26:50;;;;;;;;;0.00;0.00;;;;;21.40;49.07;100515.81;5061864;28;45395;-58
2021/06/02 05:29:34;;;;;;;;;0.00;0.00;;;;;21.36;49.55;100512.72;5060846;28;45440;-61
2021/06/02 05:32:18;;;;;;;;;0.00;0.00;;;;;21.36;49.53;100531.44;5060644;28;45336;-59
2021/06/02 05:34:55;;;;;;;;;0.00;0.00;;;;;21.29;49.89;100520.72;5060438;28;45457;-59
2021/06/02 05:37:40;;;;;;;;;0.00;0.00;;;;;21.26;50.27;100530.94;5061113;28;45351;-59
2021/06/02 05:40:14;;;;;;;;;0.00;0.00;;;;;21.24;50.70;100527.63;5060856;28;46254;-59
2021/06/02 05:43:14;;;;;;;;;0.00;0.00;;;;;21.19;50.80;100530.91;5051836;28;45529;-60
2021/06/02 05:46:16;;;;;;;;;0.00;0.00;;;;;21.22;50.55;100529.69;5040664;28;45450;-60
2021/06/02 05:48:56;;;;;;;;;0.00;0.00;;;;;21.25;50.80;100522.09;5040681;28;45236;-59
2021/06/02 05:51:54;;;;;;;;;0.00;0.00;;;;;21.30;51.00;100533.03;5040184;28;45464;-58
2021/06/02 05:55:18;;;;;;;;;0.00;0.00;;;;;21.38;50.39;100528.53;5040549;28;45306;-59
2021/06/02 05:58:13;;;;;;;;;0.00;0.00;;;;;21.42;50.70;100533.31;4951983;28;45382;-59
2021/06/02 06:01:16;;;;;;;;;0.00;0.00;;;;;21.45;51.27;100542.81;4959786;28;45322;-60
2021/06/02 06:03:53;;;;;;;;;0.00;0.00;;;;;21.48;52.72;100539.75;5022595;28;47324;-60
2021/06/02 06:06:53;;;;;;;;;0.00;0.00;;;;;21.73;51.89;100533.94;5035651;28;45414;-60
2021/06/02 06:09:30;;;;;;;;;0.00;0.00;;;;;22.12;51.13;100533.31;5020431;28;45239;-61
2021/06/02 06:12:34;;;;;;;;;0.00;0.00;;;;;22.69;50.73;100537.38;5020733;28;45163;-60
2021/06/02 06:15:24;;;;;;;;;0.00;0.00;;;;;23.20;49.50;100538.69;5027901;28;46355;-59
2021/06/02 06:18:23;;;;;;;;;0.00;0.00;;;;;23.66;48.97;100535.09;5040391;28;45318;-60
2021/06/02 06:21:21;;;;;;;;;0.00;0.00;;;;;24.09;48.19;100534.56;5041108;28;45436;-59
2021/06/02 06:23:59;;;;;;;;;0.00;0.00;;;;;24.47;47.43;100527.56;5043312;28;45441;-59
2021/06/02 06:26:45;;;;;;;;;1.00;1.00;;;;;24.89;46.16;100530.63;5043247;28;46303;-59
2021/06/02 06:29:25;;;;;;;;;0.00;0.00;;;;;25.13;45.95;100537.03;5042943;28;45353;-60
2021/06/02 06:31:52;;;;;;;;;0.75;0.75;;;;;25.28;44.98;100545.59;5043456;28;45180;-59
2021/06/02 06:34:22;;;;;;;;;0.00;0.00;;;;;25.38;44.82;100537.88;5042899;28;45340;-59
2021/06/02 06:36:50;;;;;;;;;0.00;0.00;;;;;25.54;45.13;100533.78;5042584;28;46532;-60
2021/06/02 06:39:27;;;;;;;;;0.00;0.00;;;;;25.68;44.51;100534.47;5043432;28;45587;-61
2021/06/02 06:41:53;;;;;;;;;0.00;0.00;;;;;25.85;44.59;100534.66;5040926;28;45239;-59
2021/06/02 06:44:21;;;;;;;;;0.00;0.00;;;;;26.02;44.10;100539.47;5023627;28;45347;-60
2021/06/02 06:46:48;;;;;;;;;0.00;0.00;;;;;26.10;43.95;100533.78;5022444;28;46373;-59
2021/06/02 06:49:15;;;;;;;;;0.00;0.00;;;;;26.35;43.21;100542.56;5023058;28;45204;-58
2021/06/02 06:51:44;;;;;;;;;1.00;0.00;;;;;26.53;42.39;100555.16;5022751;28;45438;-59
2021/06/02 06:54:12;;;;;;;;;4.00;4.00;;;;;26.55;42.51;100550.34;5023089;28;45315;-60
2021/06/02 06:56:39;;;;;;;;;0.75;0.75;;;;;26.51;42.71;100548.34;5022953;28;46387;-60
2021/06/02 06:59:05;;;;;;;;;0.00;0.00;;;;;26.52;42.72;100550.81;5023116;28;45446;-60
2021/06/02 07:01:31;;;;;;;;;0.25;0.25;;;;;26.53;42.47;100551.66;5040564;28;45268;-59
2021/06/02 07:03:58;;;;;;;;;0.00;0.00;;;;;26.57;42.83;100548.28;5052277;28;45282;-60
2021/06/02 07:06:23;;;;;;;;;0.00;0.00;;;;;26.70;42.14;100547.28;5044886;28;46210;-59
2021/06/02 07:08:50;;;;;;;;;1.00;0.00;;;;;26.89;41.98;100542.63;5046221;28;45544;-61
2021/06/02 07:11:18;;;;;;;;;0.00;0.00;;;;;27.08;41.59;100550.59;5042695;28;45324;-60
2021/06/02 07:13:46;;;;;;;;;0.00;0.00;;;;;27.15;42.07;100546.75;5052451;28;45518;-59
2021/06/02 07:16:13;;;;;;;;;0.00;0.00;;;;;27.38;41.93;100548.66;5051390;28;47333;-61
2021/06/02 07:18:41;;;;;;;;;0.00;0.00;;;;;27.68;41.48;100554.97;5060887;28;45401;-59
2021/06/02 07:21:07;;;;;;;;;0.00;0.00;;;;;27.84;40.89;100556.94;5062508;28;45314;-62
2021/06/02 07:23:33;;;;;;;;;0.00;0.00;;;;;27.86;40.92;100557.53;5057498;28;45516;-60
2021/06/02 07:25:59;;;;;;;;;0.00;0.00;;;;;28.01;40.47;100549.78;5054303;28;45296;-60
2021/06/02 07:28:40;;;;;;;;;0.00;0.00;;;;;28.29;40.34;100563.53;5062277;28;45237;-61
2021/06/02 07:31:08;;;;;;;;;0.00;0.00;;;;;28.46;39.88;100571.69;5061939;28;45337;-60
2021/06/02 07:33:34;;;;;;;;;0.00;0.00;;;;;28.72;39.84;100554.88;5062835;28;45487;-59
2021/06/02 07:35:59;;;;;;;;;0.00;0.00;;;;;29.10;39.31;100560.69;5060275;28;45417;-60
2021/06/02 07:38:25;;;;;;;;;1.00;1.00;;;;;29.43;38.58;100554.41;5061704;28;45280;-61
2021/06/02 07:40:51;;;;;;;;;0.00;0.00;;;;;29.71;38.44;100561.56;5040997;28;45169;-63
2021/06/02 07:43:17;;;;;;;;;0.00;0.00;;;;;29.98;37.85;100572.50;5053845;28;45422;-61
2021/06/02 07:45:43;;;;;;;;;0.75;0.75;;;;;30.22;37.46;100567.63;5061536;28;45337;-60
2021/06/02 07:48:09;;;;;;;;;0.00;0.00;;;;;30.33;37.03;100565.06;5061392;28;45330;-61
2021/06/02 07:50:35;;;;;;;;;0.00;0.00;;;;;30.56;36.93;100562.03;5061692;28;45322;-62
2021/06/02 07:53:00;;;;;;;;;0.00;0.00;;;;;30.87;36.02;100562.34;5040480;28;45498;-63
2021/06/02 07:55:25;;;;;;;;;0.00;0.00;;;;;31.01;35.38;100562.72;5042816;28;45404;-63
2021/06/02 07:57:51;;;;;;;;;0.00;0.00;;;;;31.01;35.84;100574.38;5052560;28;45244;-59
2021/06/02 08:00:17;;;;;;;;;0.00;0.00;;;;;31.13;35.55;100567.97;5045589;28;45416;-59
2021/06/02 08:02:42;;;;;;;;;0.00;0.00;;;;;31.39;35.08;100577.91;5054589;28;45169;-60
2021/06/02 08:05:09;;;;;;;;;0.00;0.00;;;;;31.66;34.96;100575.13;5044172;28;46301;-60
2021/06/02 08:07:35;;;;;;;;;0.00;0.00;;;;;31.92;34.62;100574.41;5041230;28;45356;-61
2021/06/02 08:10:00;;;;;;;;;0.00;0.00;;;;;32.13;33.61;100578.84;5041583;28;45244;-61
2021/06/02 08:12:25;;;;;;;;;0.00;0.00;;;;;32.26;33.58;100578.34;5052576;28;45645;-60
2021/06/02 08:14:51;;;;;;;;;0.00;0.00;;;;;32.58;33.87;100580.09;5039497;28;48006;-60
2021/06/02 08:17:16;;;;;;;;;10.00;10.00;;;;;32.98;33.43;100586.66;5048948;28;45463;-61
2021/06/02 08:19:41;;;;;;;;;0.00;0.00;;;;;33.27;32.61;100578.75;5053538;28;45287;-61
2021/06/02 08:22:07;;;;;;;;;0.00;0.00;;;;;33.25;32.07;100575.47;5038403;28;45391;-60
2021/06/02 08:24:38;;;;;;;;;0.00;0.00;;;;;33.44;32.23;100588.53;5037014;28;47765;-60
2021/06/02 08:27:04;;;;;;;;;0.00;0.00;;;;;33.76;32.27;100592.78;5051221;28;45808;-60
2021/06/02 08:29:30;;;;;;;;;0.00;0.00;;;;;33.95;31.96;100591.09;5051461;28;45517;-62
2021/06/02 08:31:55;;;;;;;;;0.25;0.00;;;;;34.18;30.87;100597.03;5062032;28;45398;-60
2021/06/02 08:34:20;;;;;;;;;0.00;0.00;;;;;34.35;31.04;100594.75;5061283;28;45304;-61
2021/06/02 08:36:46;;;;;;;;;0.00;0.00;;;;;34.74;30.71;100593.97;5059009;28;47181;-61
2021/06/02 08:39:11;;;;;;;;;0.00;0.00;;;;;35.68;29.89;100601.88;5051869;28;45656;-61
2021/06/02 08:41:40;;;;;;;;;0.00;0.00;;;;;36.77;27.61;100612.22;5051525;28;45548;-60
2021/06/02 08:44:06;;;;;;;;;0.00;0.00;;;;;37.73;26.81;100608.88;5040635;28;47032;-60
2021/06/02 08:46:32;;;;;;;;;0.00;0.00;;;;;38.98;25.89;100604.72;5030159;28;45381;-60
2021/06/02 08:48:57;;;;;;;;;0.00;0.00;;;;;40.34;24.11;100610.59;5041390;28;45327;-60
2021/06/02 08:51:23;;;;;;;;;0.00;0.00;;;;;41.73;22.68;100609.50;5040749;28;45430;-59
2021/06/02 08:53:50;;;;;;;;;0.00;0.00;;;;;42.69;20.55;100606.06;5039905;28;47364;-60
2021/06/02 08:56:16;;;;;;;;;0.00;0.00;;;;;43.77;21.02;100609.72;5059969;28;45387;-60
2021/06/02 08:58:42;;;;;;;;;0.00;0.00;;;;;44.85;19.17;100612.91;5060718;28;45390;-61
2021/06/02 09:01:08;;;;;;;;;0.00;0.00;;;;;45.75;17.71;100624.25;5047995;28;45325;-61
2021/06/02 09:03:34;;;;;;;;;0.00;0.00;;;;;46.58;16.46;100602.66;5047788;28;45973;-60
2021/06/02 09:06:00;;;;;;;;;0.00;0.00;;;;;46.89;15.17;100619.53;5051247;28;45299;-60
2021/06/02 09:08:27;;;;;;;;;0.00;0.00;;;;;46.53;16.13;100608.53;5041136;28;45391;-60
2021/06/02 09:10:54;;;;;;;;;0.00;0.00;;;;;47.13;16.08;100615.56;5043921;28;45231;-61
2021/06/02 09:13:24;;;;;;;;;0.00;0.00;;;;;47.63;15.45;100617.22;5030621;28;47213;-60
2021/06/02 09:15:52;;;;;;;;;0.00;0.00;;;;;47.94;14.67;100611.72;5040101;28;45338;-61
2021/06/02 09:18:22;;;;;;;;;0.00;0.00;;;;;47.59;14.09;100605.25;5044289;28;46476;-61
2021/06/02 09:20:53;;;;;;;;;0.00;0.00;;;;;47.50;14.35;100606.66;5052014;28;45565;-60
2021/06/02 09:23:32;;;;;;;;;2.50;2.50;;;;;47.45;14.76;100605.78;5054734;28;46465;-61
2021/06/02 09:26:14;;;;;;;;;0.00;0.00;;;;;47.47;15.02;100610.97;5057094;28;45506;-60
2021/06/02 09:28:52;;;;;;;;;0.00;0.00;;;;;47.61;14.97;100610.44;5049043;28;45373;-59
2021/06/02 09:31:31;;;;;;;;;0.00;0.00;;;;;47.84;14.91;100613.13;5060265;28;45336;-60
2021/06/02 09:34:00;;;;;;;;;0.00;0.00;;;;;47.91;15.12;100618.03;5041975;28;47593;-60
2021/06/02 09:36:30;;;;;;;;;0.00;0.00;;;;;47.12;14.95;100622.31;5059512;28;45276;-60
2021/06/02 09:38:59;;;;;;;;;0.00;0.00;;;;;45.79;15.77;100620.44;5060403;28;45278;-61
2021/06/02 09:41:27;;;;;;;;;0.00;0.00;;;;;44.31;16.57;100614.91;5060085;28;45268;-61
2021/06/02 09:43:52;;;;;;;;;0.00;0.00;;;;;43.47;17.95;100618.22;5040523;28;45421;-62
2021/06/02 09:46:18;;;;;;;;;0.00;0.00;;;;;42.95;18.19;100611.34;5039049;28;45349;-61
2021/06/02 09:48:46;;;;;;;;;3.00;1.00;;;;;43.17;18.32;100614.81;5039677;28;45445;-61
2021/06/02 09:51:33;;;;;;;;;0.00;0.00;;;;;44.13;17.60;100614.41;5039215;28;45301;-59
2021/06/02 09:54:07;;;;;;;;;0.00;0.00;;;;;44.95;17.56;100613.19;5039280;28;46285;-60
2021/06/02 09:56:40;;;;;;;;;1.00;0.25;;;;;44.95;16.62;100609.59;5024160;28;45544;-61
2021/06/02 09:59:10;;;;;;;;;0.00;0.00;;;;;44.29;17.83;100608.94;5043029;28;45416;-61
2021/06/02 10:01:50;;;;;;;;;0.00;0.00;;;;;43.39;18.24;100613.59;5043408;28;45518;-61
2021/06/02 10:04:15;;;;;;;;;0.00;0.00;;;;;42.60;18.68;100613.63;5048566;28;46371;-62
2021/06/02 10:06:41;;;;;;;;;0.00;0.00;;;;;41.39;20.05;100614.00;5042859;28;45267;-61
2021/06/02 10:09:07;;;;;;;;;0.00;0.00;;;;;39.94;21.36;100610.69;5043070;28;45466;-61
2021/06/02 10:11:34;;;;;;;;;0.00;0.00;;;;;39.23;22.49;100618.13;5043282;28;45280;-61
2021/06/02 10:14:01;;;;;;;;;0.00;0.00;;;;;39.63;22.92;100613.47;5034297;28;47008;-62
2021/06/02 10:16:41;;;;;;;;;0.00;0.00;;;;;40.47;22.08;100614.31;5049974;28;45336;-61
2021/06/02 10:19:06;;;;;;;;;0.00;0.00;;;;;41.35;21.34;100617.75;5050996;28;45319;-61
2021/06/02 10:21:46;;;;;;;;;0.00;0.00;;;;;42.57;19.91;100619.81;5063060;28;45256;-61
2021/06/02 10:24:12;;;;;;;;;0.00;0.00;;;;;43.27;19.13;100621.91;5063112;28;46040;-62
2021/06/02 10:26:39;;;;;;;;;0.00;0.00;;;;;43.86;18.89;100612.34;5063072;28;45330;-61
2021/06/02 10:29:06;;;;;;;;;0.00;0.00;;;;;43.65;19.14;100618.81;5047768;28;45346;-61
2021/06/02 10:31:32;;;;;;;;;0.00;0.00;;;;;44.77;18.04;100628.47;5042918;28;45158;-61
2021/06/02 10:33:57;;;;;;;;;0.00;0.00;;;;;45.85;16.79;100624.50;5042054;28;45633;-60
2021/06/02 10:36:24;;;;;;;;;3.50;3.50;;;;;45.85;15.93;100635.59;5042527;28;45287;-60
2021/06/02 10:38:54;;;;;;;;;0.00;0.00;;;;;43.92;17.34;100630.34;5043069;28;45212;-60
2021/06/02 10:41:42;;;;;;;;;0.00;0.00;;;;;41.65;19.72;100635.16;5042794;28;45471;-60
2021/06/02 10:44:10;;;;;;;;;0.00;0.00;;;;;41.13;20.25;100630.59;5042288;28;45730;-61
2021/06/02 10:46:41;;;;;;;;;0.00;0.00;;;;;40.07;21.35;100621.88;5042361;28;45351;-61
2021/06/02 10:49:06;;;;;;;;;0.00;0.00;;;;;39.53;22.18;100631.06;5042880;28;45316;-61
2021/06/02 10:51:32;;;;;;;;;0.25;0.25;;;;;39.53;22.55;100630.25;5042177;28;45220;-61
2021/06/02 10:54:19;;;;;;;;;0.00;0.00;;;;;39.10;23.45;100625.34;5042666;28;45233;-62
2021/06/02 10:56:56;;;;;;;;;0.00;0.00;;;;;38.81;23.77;100634.78;5042488;28;45326;-61
2021/06/02 10:59:24;;;;;;;;;0.00;0.00;;;;;38.47;24.29;100632.53;5042411;28;45368;-61
2021/06/02 11:02:09;;;;;;;;;0.00;0.00;;;;;38.36;25.14;100641.03;5042374;28;45336;-61
2021/06/02 11:04:56;;;;;;;;;0.00;0.00;;;;;38.11;24.31;100641.59;5042138;28;45359;-61
2021/06/02 11:07:21;;;;;;;;;0.00;0.00;;;;;37.69;25.02;100641.56;5040483;28;45391;-60
2021/06/02 11:09:54;;;;;;;;;0.00;0.00;;;;;37.44;24.97;100645.56;5045279;28;45299;-60
2021/06/02 11:12:19;;;;;;;;;0.00;0.00;;;;;37.42;25.03;100645.06;5042346;28;45568;-61
2021/06/02 11:14:45;;;;;;;;;2.25;0.00;;;;;37.44;25.53;100650.25;5041878;28;46228;-60
2021/06/02 11:17:12;;;;;;;;;0.00;0.00;;;;;37.14;25.61;100645.00;5041380;28;45367;-61
2021/06/02 11:19:41;;;;;;;;;0.00;0.00;;;;;37.12;25.69;100643.69;5041842;28;45252;-61
2021/06/02 11:22:09;;;;;;;;;0.00;0.00;;;;;37.02;25.29;100650.13;5056720;28;47066;-61
2021/06/02 11:24:37;;;;;;;;;0.00;0.00;;;;;37.08;25.64;100648.91;5057988;28;46457;-60
2021/06/02 11:29:49;;;;;;;;;0.00;0.00;;;;;36.70;26.32;100642.69;5040883;28;45710;-61
2021/06/02 11:32:17;;;;;;;;;0.00;0.00;;;;;36.34;26.51;100645.91;5045377;28;45613;-60
2021/06/02 11:34:44;;;;;;;;;0.50;0.00;;;;;36.12;26.93;100655.47;5042132;28;46448;-60
2021/06/02 11:37:13;;;;;;;;;0.00;0.00;;;;;35.82;27.34;100642.16;5062068;28;45386;-60
2021/06/02 11:39:40;;;;;;;;;0.00;0.00;;;;;35.68;27.46;100642.84;5042545;28;45301;-61
2021/06/02 11:42:07;;;;;;;;;0.00;0.00;;;;;35.70;27.84;100653.47;5041930;28;45515;-61
2021/06/02 11:44:35;;;;;;;;;0.00;0.00;;;;;35.52;27.75;100660.47;5023098;28;46312;-60
2021/06/02 11:47:00;;;;;;;;;0.00;0.00;;;;;35.31;28.05;100648.91;5041543;28;45385;-61
2021/06/02 11:49:31;;;;;;;;;0.00;0.00;;;;;35.05;28.03;100656.47;5041726;28;45562;-60
2021/06/02 11:52:08;;;;;;;;;0.75;0.00;;;;;34.61;28.88;100657.31;5050715;28;45363;-60
2021/06/02 11:54:53;;;;;;;;;1.00;1.00;;;;;34.07;29.74;100667.88;5061205;28;46266;-61
2021/06/02 11:57:33;;;;;;;;;0.50;0.00;;;;;33.65;30.33;100662.81;5061339;28;45247;-61
2021/06/02 12:00:05;;;;;;;;;0.00;0.00;;;;;33.53;30.34;100651.41;5048909;28;45440;-61
2021/06/02 12:02:32;;;;;;;;;0.00;0.00;;;;;33.57;30.74;100658.75;5044144;28;45619;-60